Time;durP1;ratioP1;P1;durP2;ratioP2;P2;SDS_P1;SDS_P2;PMS_P1;PMS_P2;Temp;Humidity;BMP_temperature;BMP_pressure;BME280_temperature;BME280_humidity;BME280_pressure;Samples;Min_cycle;Max_cycle;Signal;HPM_P1;HPM_P2
2022/06/20 05:58:37;;;;;;;;;15.00;12.67;;;;;19.53;72.37;101016.25;5150330;27;45544;-88
2022/06/20 06:01:07;;;;;;;;;11.00;8.33;;;;;19.82;71.07;101007.75;5134903;27;45438;-91
2022/06/20 06:03:44;;;;;;;;;9.33;9.33;;;;;20.04;70.14;101015.00;5133120;27;45326;-88
2022/06/20 06:06:48;;;;;;;;;11.67;11.67;;;;;20.19;69.60;101019.22;5133105;27;45435;-89
2022/06/20 06:09:20;;;;;;;;;10.00;9.00;;;;;20.19;67.96;101013.81;5130260;27;45422;-92
2022/06/20 06:11:59;;;;;;;;;8.00;8.00;;;;;20.20;67.80;100998.41;5141213;27;45486;-87
2022/06/20 06:14:46;;;;;;;;;15.67;11.00;;;;;20.19;67.37;100988.59;5143282;27;45565;-91
2022/06/20 06:17:31;;;;;;;;;10.00;8.67;;;;;20.61;66.50;101054.69;5137922;27;45464;-91
2022/06/20 06:20:02;;;;;;;;;13.00;10.00;;;;;20.68;66.46;101043.38;5132877;27;46885;-90
2022/06/20 06:22:31;;;;;;;;;8.33;8.33;;;;;20.51;65.88;101023.91;5135713;27;45443;-89
2022/06/20 06:25:00;;;;;;;;;10.00;8.00;;;;;20.78;66.44;101060.56;5146601;27;45382;-87
2022/06/20 06:27:30;;;;;;;;;7.33;7.00;;;;;20.75;65.37;101053.56;5134094;27;45592;-87
2022/06/20 06:30:01;;;;;;;;;7.33;7.33;;;;;20.84;64.86;101069.06;5135422;27;46656;-88
2022/06/20 06:32:27;;;;;;;;;7.00;6.67;;;;;20.87;64.56;101076.94;5142464;27;45628;-85
2022/06/20 06:35:18;;;;;;;;;8.00;7.67;;;;;20.89;64.53;101070.56;5135588;27;45397;-87
2022/06/20 06:37:56;;;;;;;;;8.00;7.00;;;;;20.91;63.67;101072.13;5137918;27;45784;-88
2022/06/20 06:40:32;;;;;;;;;9.00;7.00;;;;;20.95;64.44;101083.56;5133321;27;46467;-87
2022/06/20 06:42:59;;;;;;;;;9.00;8.00;;;;;20.97;64.10;101081.59;5133510;27;45522;-84
2022/06/20 06:45:28;;;;;;;;;72.25;59.00;;;;;20.98;63.53;101089.63;5130819;27;46303;-83
2022/06/20 06:48:09;;;;;;;;;7.67;7.33;;;;;21.00;63.88;101093.06;5134747;27;45761;-85
2022/06/20 06:50:46;;;;;;;;;8.67;7.67;;;;;21.03;63.54;101083.81;5130038;27;45608;-86
2022/06/20 06:53:38;;;;;;;;;8.67;7.33;;;;;20.96;63.50;101069.91;5131982;27;45527;-85
2022/06/20 06:56:13;;;;;;;;;10.67;9.33;;;;;21.00;63.17;101078.63;5120224;27;45395;-86
2022/06/20 06:59:11;;;;;;;;;12.00;9.33;;;;;20.82;62.52;101056.63;5111898;27;45375;-86
2022/06/20 07:01:43;;;;;;;;;8.00;8.00;;;;;20.93;62.10;101077.41;5113892;27;47267;-85
2022/06/20 07:04:23;;;;;;;;;11.67;8.00;;;;;21.11;62.08;101110.28;5123607;27;45367;-84
2022/06/20 07:06:57;;;;;;;;;8.67;7.67;;;;;20.88;61.64;101075.09;5121179;27;45396;-85
2022/06/20 07:09:28;;;;;;;;;11.00;9.00;;;;;21.13;62.25;101117.31;5118700;27;45418;-85
2022/06/20 07:12:11;;;;;;;;;9.67;9.00;;;;;21.13;61.71;101122.72;5122577;27;46466;-86
2022/06/20 07:14:42;;;;;;;;;9.00;9.00;;;;;20.99;61.05;101104.88;5126576;27;45516;-88
2022/06/20 07:17:08;;;;;;;;;13.00;11.33;;;;;21.13;60.71;101133.56;5121158;27;45631;-89
2022/06/20 07:19:36;;;;;;;;;142.00;81.50;;;;;21.05;60.21;101119.78;5132059;27;45407;-88
2022/06/20 07:22:02;;;;;;;;;66.75;51.25;;;;;21.08;60.50;101122.25;5123786;27;45433;-87
2022/06/20 07:24:31;;;;;;;;;68.00;50.75;;;;;21.15;60.51;101128.03;5125828;27;45371;-89
2022/06/20 07:27:06;;;;;;;;;206.75;123.00;;;;;21.15;61.13;101128.88;5118550;27;45503;-87
2022/06/20 07:29:43;;;;;;;;;110.25;76.25;;;;;21.17;60.41;101136.91;5114132;27;45487;-88
2022/06/20 07:32:18;;;;;;;;;84.25;57.50;;;;;21.14;60.50;101142.56;5127136;27;47388;-88
2022/06/20 07:34:55;;;;;;;;;10.00;10.00;;;;;20.74;60.10;101089.75;5131080;27;45792;-91
2022/06/20 07:37:35;;;;;;;;;9.00;8.00;;;;;20.50;60.47;101056.50;5115831;27;45767;-92
2022/06/20 07:40:11;;;;;;;;;14.00;13.00;;;;;20.66;60.78;101093.09;5109819;27;45389;-91
2022/06/20 07:42:58;;;;;;;;;10.67;10.67;;;;;20.72;60.04;101110.72;5131479;27;48478;-92
2022/06/20 07:45:34;;;;;;;;;13.33;10.00;;;;;21.04;59.38;101174.97;5112456;27;45415;-93
2022/06/20 07:48:06;;;;;;;;;142.25;97.25;;;;;21.02;60.57;101166.09;5110705;27;45516;-92
2022/06/20 07:50:46;;;;;;;;;76.50;53.75;;;;;20.74;59.65;101130.38;5115490;27;45582;-93
2022/06/20 07:53:17;;;;;;;;;252.67;167.33;;;;;20.51;59.78;101098.84;5116675;27;47433;-90
2022/06/20 07:55:59;;;;;;;;;52.00;39.33;;;;;19.77;59.89;100967.53;5138858;27;45643;-94
2022/06/20 07:58:32;;;;;;;;;51.00;39.00;;;;;20.99;60.31;101166.34;5116297;27;45542;-92
2022/06/20 08:01:06;;;;;;;;;144.25;97.50;;;;;20.79;59.71;101135.44;5125543;27;45414;-90
2022/06/20 08:04:13;;;;;;;;;28.33;19.67;;;;;20.74;59.72;101134.94;5115052;27;45414;-92
2022/06/20 08:06:49;;;;;;;;;92.00;71.25;;;;;19.47;61.02;101002.34;5117209;22;45407;-91
2022/06/20 08:09:34;;;;;;;;;54.33;34.33;;;;;19.86;61.10;101063.34;5101712;27;45481;-90
2022/06/20 08:12:04;;;;;;;;;27.67;23.33;;;;;20.67;60.86;101175.22;5101255;27;45486;-89
2022/06/20 08:14:49;;;;;;;;;45.33;30.67;;;;;20.56;61.38;101150.84;5100042;27;48038;-89
2022/06/20 08:17:15;;;;;;;;;23.67;16.67;;;;;20.78;60.35;101177.06;5098681;27;45431;-90
2022/06/20 08:19:46;;;;;;;;;11.67;11.67;;;;;20.88;59.69;101183.47;5101216;27;45401;-92
2022/06/20 08:22:24;;;;;;;;;10.00;9.33;;;;;20.59;60.03;101118.09;5104396;27;45395;-91
2022/06/20 08:25:16;;;;;;;;;13.33;9.00;;;;;20.99;59.87;101169.91;5095024;27;45510;-91
2022/06/20 08:27:53;;;;;;;;;13.00;10.67;;;;;21.05;59.57;101166.72;5093573;27;45455;-90
2022/06/20 08:30:30;;;;;;;;;12.00;10.00;;;;;20.99;59.73;101153.66;5089897;27;45500;-91
2022/06/20 08:33:01;;;;;;;;;12.00;11.33;;;;;20.99;59.11;101150.94;5091008;27;45447;-91
2022/06/20 08:35:35;;;;;;;;;10.33;10.00;;;;;20.47;59.60;101052.19;5095666;27;47384;-91
2022/06/20 08:38:13;;;;;;;;;13.67;10.67;;;;;20.71;59.29;101087.31;5084452;27;45544;-91
2022/06/20 08:41:04;;;;;;;;;15.33;13.33;;;;;20.99;59.79;101120.28;5093875;27;45612;-89
2022/06/20 08:43:42;;;;;;;;;9.00;8.00;;;;;21.39;58.97;101169.38;5077899;27;45640;-89
2022/06/20 08:46:25;;;;;;;;;10.33;8.00;;;;;21.00;58.73;101100.31;5098031;27;47360;-90
2022/06/20 08:48:59;;;;;;;;;15.33;13.00;;;;;21.28;58.86;101139.56;5097828;27;45459;-90
2022/06/20 08:52:07;;;;;;;;;14.33;11.33;;;;;21.54;58.77;101182.69;5076815;27;45630;-89
2022/06/20 08:55:05;;;;;;;;;7.67;7.67;;;;;21.54;58.42;101180.84;5100517;27;45710;-89
2022/06/20 08:57:53;;;;;;;;;9.00;9.00;;;;;21.40;58.33;101160.28;5095735;27;46736;-92
2022/06/20 09:00:31;;;;;;;;;14.33;11.33;;;;;21.27;58.22;101146.84;5094911;27;45848;-90
2022/06/20 09:03:09;;;;;;;;;12.00;9.00;;;;;21.49;58.30;101183.06;5086596;27;45374;-90
2022/06/20 09:05:47;;;;;;;;;12.33;9.00;;;;;21.57;57.89;101202.28;5096576;27;45621;-90
2022/06/20 09:08:37;;;;;;;;;12.33;9.67;;;;;21.56;57.66;101196.97;5095444;27;45803;-91
2022/06/20 09:11:21;;;;;;;;;13.00;12.67;;;;;21.49;57.36;101197.50;5100827;27;45506;-91
2022/06/20 09:14:11;;;;;;;;;9.67;9.33;;;;;21.54;57.68;101217.94;5081624;27;45512;-92
2022/06/20 09:16:49;;;;;;;;;12.67;10.33;;;;;21.42;57.47;101192.69;5090957;27;45971;-92
2022/06/20 09:19:56;;;;;;;;;8.33;8.33;;;;;21.56;57.38;101218.69;5095907;27;46494;-91
2022/06/20 09:22:39;;;;;;;;;9.00;9.00;;;;;21.59;57.61;101221.16;5076412;27;45496;-92
2022/06/20 09:25:49;;;;;;;;;13.00;11.00;;;;;21.62;57.66;101223.59;5096345;27;45475;-91
2022/06/20 09:28:48;;;;;;;;;9.67;9.00;;;;;21.59;57.32;101196.75;5097633;27;45455;-89
2022/06/20 09:31:14;;;;;;;;;10.00;8.00;;;;;21.76;56.70;101217.03;5074214;27;48694;-89
2022/06/20 09:34:08;;;;;;;;;8.00;8.00;;;;;21.36;56.88;101147.09;5080590;27;46555;-90
2022/06/20 09:36:51;;;;;;;;;12.67;11.33;;;;;21.87;56.00;101226.00;5095287;27;45432;-88
2022/06/20 09:39:28;;;;;;;;;12.67;10.67;;;;;21.73;56.25;101195.56;5091271;27;45588;-91
2022/06/20 09:42:37;;;;;;;;;10.00;10.00;;;;;21.92;56.32;101237.34;5077467;27;47848;-88
2022/06/20 09:45:40;;;;;;;;;19.00;17.67;;;;;21.89;56.19;101243.03;5073618;27;45582;-90
2022/06/20 09:48:35;;;;;;;;;19.33;15.33;;;;;21.98;56.45;101240.50;5070797;27;45748;-90
2022/06/20 09:51:12;;;;;;;;;16.00;13.67;;;;;22.06;55.94;101248.88;5070127;27;45735;-91
2022/06/20 09:54:03;;;;;;;;;14.00;12.67;;;;;22.14;56.28;101247.22;5078003;27;48195;-91
2022/06/20 09:56:50;;;;;;;;;13.00;8.67;;;;;22.26;55.46;101244.50;5047509;27;45727;-91
2022/06/20 10:05:47;;;;;;;;;10.33;10.33;;;;;22.12;54.61;101202.19;5100904;22;45489;-88
2022/06/20 10:08:30;;;;;;;;;9.00;8.67;;;;;22.45;54.70;101251.94;5093123;27;45921;-90
2022/06/20 10:11:23;;;;;;;;;10.67;9.33;;;;;22.49;54.86;101247.97;5088349;27;45480;-93
2022/06/20 10:14:07;;;;;;;;;11.67;10.33;;;;;22.56;54.46;101243.72;5092596;27;45866;-90
2022/06/20 10:16:35;;;;;;;;;10.33;8.33;;;;;22.46;54.45;101221.94;5086723;27;45714;-89
2022/06/20 10:19:43;;;;;;;;;9.00;9.00;;;;;22.71;54.83;101241.53;5092602;27;45543;-87
2022/06/20 10:25:35;;;;;;;;;10.00;9.00;;;;;22.69;53.28;101195.47;5091926;27;45458;-90
2022/06/20 10:28:25;;;;;;;;;8.00;5.00;;;;;23.21;53.15;101233.53;5094118;27;47908;-89
2022/06/20 10:34:42;;;;;;;;;8.33;8.33;;;;;23.42;52.76;101244.34;5089088;27;45439;-89
2022/06/20 10:37:34;;;;;;;;;8.00;8.00;;;;;23.44;51.84;101231.47;5100304;27;45292;-93
2022/06/20 10:43:00;;;;;;;;;9.00;6.67;;;;;23.69;51.67;101235.50;5118740;27;45470;-90
2022/06/20 10:46:10;;;;;;;;;7.67;6.67;;;;;23.83;51.86;101247.03;5095677;27;45481;-91
2022/06/20 10:49:13;;;;;;;;;7.67;7.67;;;;;23.99;51.21;101237.28;5114384;22;45715;-91
2022/06/20 10:52:42;;;;;;;;;8.33;8.33;;;;;23.32;50.30;101111.03;5097453;27;47832;-95
2022/06/20 10:55:52;;;;;;;;;7.67;7.67;;;;;24.16;50.38;101252.09;5099815;27;45542;-90
2022/06/20 10:58:51;;;;;;;;;8.00;8.00;;;;;24.11;50.88;101248.06;5087695;27;45518;-87
2022/06/20 11:01:50;;;;;;;;;10.67;9.33;;;;;24.09;50.03;101255.50;5081245;27;45615;-89
2022/06/20 11:04:25;;;;;;;;;10.67;10.00;;;;;24.10;50.29;101258.09;5086941;27;45716;-88
2022/06/20 11:07:17;;;;;;;;;13.00;11.33;;;;;24.10;50.38;101254.53;5073269;27;45457;-94
2022/06/20 11:10:46;;;;;;;;;22.67;19.33;;;;;23.95;50.10;101232.28;5086648;27;45495;-96
2022/06/20 11:17:31;;;;;;;;;10.00;9.33;;;;;24.31;49.91;101263.41;5095314;22;46150;-95
2022/06/20 11:36:36;;;;;;;;;;;;;;;;;;;;;
2022/06/20 12:24:10;;;;;;;;;8.00;6.00;;;;;25.99;44.75;101121.53;5134436;22;45601;-96
2022/06/20 12:26:57;;;;;;;;;9.00;6.67;;;;;26.10;44.58;101154.91;5105030;22;46348;-95
2022/06/20 12:50:21;;;;;;;;;6.00;6.00;;;;;27.06;44.99;101205.13;5040625;22;74267;-92
2022/06/20 12:53:47;;;;;;;;;5.00;4.00;;;;;27.22;44.99;101205.22;5039573;28;45414;-92
2022/06/20 12:56:58;;;;;;;;;8.67;6.00;;;;;27.19;44.53;101178.16;5003667;28;45694;-94
2022/06/20 13:06:41;;;;;;;;;;;;;;;;;;;;;
2022/06/20 13:09:47;;;;;;;;;5.33;4.33;;;;;27.60;43.65;101218.53;5044164;28;67728;-90
2022/06/20 13:12:22;;;;;;;;;5.00;3.67;;;;;27.58;42.77;101226.91;5043987;28;45896;-87
2022/06/20 13:15:24;;;;;;;;;5.00;5.00;;;;;27.25;42.84;101191.19;5043546;28;45409;-88
2022/06/20 13:18:12;;;;;;;;;5.00;5.00;;;;;27.19;43.74;101223.84;5049000;28;45318;-88
2022/06/20 13:21:11;;;;;;;;;7.00;6.00;;;;;26.99;44.40;101223.22;5033521;28;45540;-88
2022/06/20 13:23:55;;;;;;;;;6.33;5.00;;;;;26.98;44.01;101227.84;5047329;28;45664;-84
2022/06/20 13:26:30;;;;;;;;;5.00;5.00;;;;;26.32;44.39;101128.13;5067420;22;47181;-84
2022/06/20 13:29:20;;;;;;;;;6.00;6.00;;;;;26.93;44.55;101235.69;5049765;28;45701;-84
2022/06/20 13:31:54;;;;;;;;;9.33;6.33;;;;;26.54;43.61;101151.34;5051494;28;45588;-84
2022/06/20 13:34:34;;;;;;;;;5.67;5.67;;;;;26.99;44.09;101232.28;5031613;28;45464;-87
2022/06/20 13:37:13;;;;;;;;;7.33;7.33;;;;;25.82;44.47;101027.66;5055193;28;46500;-86
2022/06/20 13:39:56;;;;;;;;;7.67;7.00;;;;;27.06;43.83;101224.28;5048774;28;45644;-87
2022/06/20 13:45:43;;;;;;;;;6.67;6.67;;;;;26.99;44.06;101213.13;4975960;28;45672;-91
2022/06/20 13:54:17;;;;;;;;;10.67;9.33;;;;;27.10;43.49;101201.91;5274645;22;67528;-89
2022/06/20 13:57:20;;;;;;;;;8.33;6.00;;;;;27.18;43.50;101190.13;5029342;28;45647;-89
2022/06/20 14:00:08;;;;;;;;;10.00;10.00;;;;;26.81;43.90;101117.47;5025401;28;46350;-90
2022/06/20 14:17:18;;;;;;;;;10.33;9.00;;;;;27.40;43.48;101202.41;5708675;22;47011;-85
2022/06/20 14:19:59;;;;;;;;;6.67;6.67;;;;;27.41;43.31;101193.16;5056522;28;45460;-84
2022/06/20 14:22:44;;;;;;;;;6.67;6.00;;;;;27.21;43.16;101159.75;5038294;28;47998;-86
2022/06/20 14:27:49;;;;;;;;;8.33;8.00;;;;;26.42;43.22;101055.03;5360984;22;46604;-88
2022/06/20 14:30:34;;;;;;;;;13.00;11.00;;;;;27.27;43.13;101182.84;5049496;28;45450;-88
2022/06/20 14:33:20;;;;;;;;;8.00;8.00;;;;;26.99;43.32;101141.13;5050515;28;45743;-84
2022/06/20 14:35:46;;;;;;;;;11.67;8.33;;;;;27.28;43.31;101198.25;5043500;28;45784;-86
2022/06/20 14:38:27;;;;;;;;;6.33;6.33;;;;;26.59;43.14;101077.03;5052481;28;45390;-92
2022/06/20 14:41:40;;;;;;;;;5.33;5.00;;;;;26.50;43.43;101076.97;5037439;28;45468;-92
2022/06/20 14:44:34;;;;;;;;;8.00;7.00;;;;;27.17;43.98;101169.25;5067844;28;45484;-95
2022/06/20 14:47:08;;;;;;;;;8.00;7.00;;;;;27.13;43.16;101173.34;5056262;28;45486;-91
2022/06/20 14:50:02;;;;;;;;;9.00;7.00;;;;;26.77;44.00;101112.50;5069085;28;45576;-92
2022/06/20 14:53:10;;;;;;;;;8.67;8.33;;;;;26.61;43.49;101100.44;5058379;28;45458;-89
2022/06/20 14:55:43;;;;;;;;;6.67;6.67;;;;;26.98;43.66;101161.31;5054538;28;46729;-87
2022/06/20 14:58:21;;;;;;;;;7.67;6.67;;;;;26.93;44.09;101145.41;5054311;28;45402;-88
2022/06/20 15:01:12;;;;;;;;;6.33;5.00;;;;;26.35;43.90;101047.66;5052057;28;45567;-86
2022/06/20 15:04:02;;;;;;;;;5.33;5.33;;;;;27.04;43.62;101156.06;5052816;28;45776;-86
2022/06/20 15:06:40;;;;;;;;;7.00;5.00;;;;;26.64;43.50;101089.19;5054786;28;45731;-86
2022/06/20 15:09:29;;;;;;;;;7.00;6.00;;;;;26.97;42.72;101154.97;5050228;28;45498;-86
2022/06/20 15:12:24;;;;;;;;;7.00;7.00;;;;;26.16;43.45;101059.69;5050117;28;45528;-84
2022/06/20 15:15:02;;;;;;;;;11.33;9.00;;;;;25.67;43.10;101003.66;5050884;28;45353;-84
2022/06/20 15:17:41;;;;;;;;;6.67;5.67;;;;;26.58;43.56;101166.41;5036195;28;48182;-85
2022/06/20 15:20:30;;;;;;;;;7.00;5.33;;;;;26.36;44.16;101114.97;5049821;28;46073;-84
2022/06/20 15:23:29;;;;;;;;;7.67;6.33;;;;;26.57;45.08;101147.41;5051578;28;45488;-93
2022/06/20 15:26:04;;;;;;;;;4.67;4.67;;;;;26.64;44.67;101151.22;5044752;28;45381;-90
2022/06/20 15:28:43;;;;;;;;;5.00;5.00;;;;;26.64;44.64;101153.94;5031788;28;46386;-88
2022/06/20 15:31:14;;;;;;;;;7.00;7.00;;;;;26.37;44.81;101092.09;5480232;22;46398;-92
2022/06/20 15:33:45;;;;;;;;;5.00;5.00;;;;;26.66;44.80;101151.91;5052863;28;45537;-91
2022/06/20 15:36:22;;;;;;;;;5.67;5.00;;;;;26.62;44.86;101150.53;5055921;28;45488;-91
2022/06/20 15:39:13;;;;;;;;;6.00;5.33;;;;;26.57;45.14;101141.94;5040112;28;47296;-91
2022/06/20 15:41:57;;;;;;;;;7.67;4.67;;;;;26.33;43.97;101080.63;5053753;28;45457;-91
2022/06/20 15:44:28;;;;;;;;;5.67;4.67;;;;;26.66;44.27;101144.56;5051133;28;45376;-92
2022/06/20 15:47:04;;;;;;;;;4.00;4.00;;;;;26.55;44.34;101130.31;5053870;28;45442;-89
2022/06/20 15:49:35;;;;;;;;;3.67;2.67;;;;;26.67;44.65;101139.97;5052182;28;46150;-90
2022/06/20 15:52:18;;;;;;;;;5.00;5.00;;;;;26.68;44.74;101149.88;5057539;28;45481;-92
2022/06/20 15:55:20;;;;;;;;;4.00;4.00;;;;;26.67;44.09;101149.03;5050925;28;45601;-92
2022/06/20 15:58:16;;;;;;;;;4.67;4.00;;;;;26.55;44.01;101127.56;5050258;28;45469;-89
2022/06/20 16:12:45;;;;;;;;;2.00;2.00;;;;;25.93;43.49;101024.69;5052757;28;45533;-91
2022/06/20 16:17:44;;;;;;;;;7.00;3.67;;;;;26.00;43.43;101038.56;5384288;22;68021;-88
2022/06/20 16:20:37;;;;;;;;;6.00;6.00;;;;;25.44;41.76;100967.81;5052313;28;50761;-89
2022/06/20 16:23:48;;;;;;;;;6.00;4.33;;;;;25.87;43.01;101025.31;5049621;28;46243;-85
2022/06/20 16:26:48;;;;;;;;;3.00;3.00;;;;;26.56;41.88;101152.03;5057570;28;45589;-88
2022/06/20 16:29:33;;;;;;;;;4.00;4.00;;;;;26.25;41.68;101106.03;5049393;28;45644;-86
2022/06/20 16:32:08;;;;;;;;;1.67;1.67;;;;;26.06;41.77;101077.03;5055972;28;45496;-87
2022/06/20 16:35:13;;;;;;;;;3.33;2.00;;;;;26.07;41.28;101099.75;5052779;28;47276;-88
2022/06/20 16:53:41;;;;;;;;;0.67;0.67;;;;;26.12;39.83;101160.22;1786472;22;46175;-89
2022/06/20 16:56:21;;;;;;;;;4.00;0.67;;;;;25.12;39.61;101003.81;5071684;28;45446;-90
2022/06/20 16:59:32;;;;;;;;;4.00;1.00;;;;;25.09;39.99;100989.66;5071128;28;46938;-93
2022/06/20 17:02:12;;;;;;;;;1.00;1.00;;;;;25.99;39.36;101140.66;5067133;28;45419;-85
2022/06/20 17:04:58;;;;;;;;;2.75;1.00;;;;;25.44;40.94;101057.03;5068222;28;45403;-90
2022/06/20 17:21:24;;;;;;;;;1.00;0.00;;;;;25.44;39.81;101057.03;5051827;28;45436;-90
2022/06/20 17:24:19;;;;;;;;;;;;;;;;;;;;;
2022/06/20 17:30:23;;;;;;;;;;;;;;;;;;;;;
2022/06/20 17:33:04;;;;;;;;;1.67;1.67;;;;;25.92;39.98;101167.75;5069094;27;62854;-88
2022/06/20 17:38:23;;;;;;;;;1.00;1.00;;;;;25.74;40.10;101124.03;5286640;22;71982;-81
2022/06/20 17:41:06;;;;;;;;;2.00;2.00;;;;;25.50;40.04;101078.25;5044222;28;45582;-83
2022/06/20 17:43:48;;;;;;;;;1.00;1.00;;;;;25.78;39.69;101125.44;5051237;28;45493;-82
2022/06/20 17:46:28;;;;;;;;;1.33;1.33;;;;;25.34;40.92;101059.00;5055282;28;46587;-84
2022/06/20 17:49:19;;;;;;;;;3.00;2.00;;;;;25.85;39.20;101129.25;5047033;28;45561;-84
2022/06/20 17:51:59;;;;;;;;;2.33;1.00;;;;;25.84;39.47;101135.72;5054645;28;45525;-83
2022/06/20 17:54:52;;;;;;;;;1.25;1.00;;;;;25.82;39.96;101140.47;5049891;27;45521;-84
2022/06/20 17:57:42;;;;;;;;;1.33;1.33;;;;;25.77;39.78;101145.56;5054458;28;46232;-85
2022/06/20 18:00:19;;;;;;;;;2.00;1.00;;;;;25.36;39.56;101076.06;5056111;28;45504;-85
2022/06/20 18:03:06;;;;;;;;;1.67;1.67;;;;;25.72;41.20;101139.72;5049002;27;45484;-84
2022/06/20 18:05:56;;;;;;;;;2.00;2.00;;;;;25.04;41.52;101031.03;5052195;28;45436;-84
2022/06/20 18:08:25;;;;;;;;;3.33;2.00;;;;;25.66;40.44;101143.94;5052343;28;47160;-83
2022/06/20 18:11:38;;;;;;;;;;;;;;;;;;;;;
2022/06/20 18:14:26;;;;;;;;;3.00;1.33;;;;;25.62;39.93;101142.53;5026172;28;69658;-83
2022/06/20 18:17:08;;;;;;;;;1.00;1.00;;;;;24.85;40.06;101013.78;5042079;28;45559;-87
2022/06/20 18:20:24;;;;;;;;;2.00;2.00;;;;;25.57;39.76;101133.09;5044572;28;45498;-89
2022/06/20 18:23:00;;;;;;;;;3.33;3.00;;;;;25.53;40.21;101135.25;4968944;28;45697;-88
2022/06/20 18:25:39;;;;;;;;;2.67;2.00;;;;;25.32;40.00;101110.13;4970109;28;45551;-85
2022/06/20 18:31:21;;;;;;;;;2.00;2.00;;;;;24.67;40.56;101012.03;4963644;22;46146;-87
2022/06/20 18:33:51;;;;;;;;;3.00;3.00;;;;;25.41;39.54;101145.53;5070812;27;45510;-90
2022/06/20 18:36:23;;;;;;;;;9.33;9.33;;;;;25.39;39.85;101138.53;5077320;27;45495;-90
2022/06/20 18:41:21;;;;;;;;;7.67;7.67;;;;;24.59;41.05;101013.66;5064367;22;74427;-91
2022/06/20 18:44:11;;;;;;;;;5.33;4.00;;;;;25.30;40.53;101140.28;5051054;28;45713;-88
2022/06/20 18:50:20;;;;;;;;;3.00;3.00;;;;;25.23;41.30;101145.50;5048396;28;45523;-87
2022/06/20 18:53:22;;;;;;;;;5.00;4.00;;;;;25.19;40.18;101140.50;5042525;28;46070;-86
2022/06/20 18:56:37;;;;;;;;;3.00;3.00;;;;;25.02;40.19;101125.78;5046417;28;45868;-91
2022/06/20 18:59:50;;;;;;;;;2.00;2.00;;;;;25.14;40.42;101140.94;5420047;22;46642;-89
2022/06/20 19:14:25;;;;;;;;;4.67;4.67;;;;;25.00;42.98;101139.56;5070590;27;45590;-85
2022/06/20 19:21:08;;;;;;;;;3.00;3.00;;;;;24.77;40.97;101130.06;5440529;22;45557;-93
2022/06/20 19:33:05;;;;;;;;;5.00;5.00;;;;;23.91;41.74;100986.69;5158064;22;71612;-94
2022/06/20 19:36:12;;;;;;;;;7.67;6.67;;;;;24.67;41.06;101113.75;5026222;28;45759;-95
2022/06/20 19:38:59;;;;;;;;;4.00;4.00;;;;;24.59;41.50;101106.31;5041545;28;46434;-83
2022/06/20 19:48:44;;;;;;;;;6.00;4.67;;;;;24.60;41.20;101115.34;5231795;23;45737;-88
2022/06/20 19:53:54;;;;;;;;;3.33;3.33;;;;;23.29;42.96;100904.56;5079876;22;73957;-91
2022/06/20 19:57:05;;;;;;;;;5.00;5.00;;;;;23.98;41.57;101031.38;5098598;27;45737;-95
2022/06/20 19:59:34;;;;;;;;;4.33;4.33;;;;;24.13;42.48;101061.69;5069221;28;45615;-87
2022/06/20 20:08:03;;;;;;;;;4.00;4.00;;;;;24.57;42.79;101123.84;5338711;22;45758;-89
2022/06/20 20:10:47;;;;;;;;;5.00;5.00;;;;;24.10;43.15;101052.97;5045107;28;45640;-89
2022/06/20 20:13:37;;;;;;;;;5.00;4.00;;;;;24.58;42.90;101140.06;5044205;28;45582;-90
2022/06/20 20:16:06;;;;;;;;;4.67;4.67;;;;;24.60;41.71;101137.16;5052795;28;47030;-90
2022/06/20 20:18:36;;;;;;;;;5.50;5.50;;;;;24.58;42.83;101136.44;5049117;28;45677;-89
2022/06/20 20:21:04;;;;;;;;;4.00;4.00;;;;;24.37;42.00;101110.25;5049151;28;48258;-89
2022/06/20 20:24:02;;;;;;;;;5.00;5.00;;;;;24.02;41.93;101050.97;5048536;28;45471;-87
2022/06/20 20:27:04;;;;;;;;;6.00;5.67;;;;;24.58;43.02;101155.53;5050223;28;46970;-87
2022/06/20 20:30:11;;;;;;;;;7.33;6.00;;;;;24.59;43.30;101155.41;5049082;28;45994;-86
2022/06/20 20:32:51;;;;;;;;;6.33;6.33;;;;;24.60;41.65;101157.09;5048395;28;45519;-88
2022/06/20 20:35:43;;;;;;;;;6.33;5.33;;;;;24.58;42.74;101152.81;5048335;28;45668;-89
2022/06/20 20:38:19;;;;;;;;;6.67;6.33;;;;;24.58;42.01;101160.97;5052950;28;47687;-88
2022/06/20 20:41:06;;;;;;;;;7.00;7.00;;;;;24.58;42.17;101140.06;5047435;28;45687;-89
2022/06/20 20:43:55;;;;;;;;;8.00;8.00;;;;;24.16;42.37;101085.94;5057022;28;45500;-90
2022/06/20 20:46:44;;;;;;;;;6.00;6.00;;;;;24.56;41.33;101144.78;5053233;28;45449;-95
2022/06/20 20:53:20;;;;;;;;;7.33;6.00;;;;;24.28;41.57;101104.81;5054130;28;45617;-91
2022/06/20 20:55:52;;;;;;;;;8.00;8.00;;;;;24.16;41.39;101068.72;5038966;28;45403;-89
2022/06/20 20:58:23;;;;;;;;;6.00;6.00;;;;;24.28;41.87;101096.63;5051019;28;45555;-90
2022/06/20 21:01:07;;;;;;;;;7.00;5.33;;;;;23.94;41.65;101038.09;5054690;28;46225;-89
2022/06/20 21:03:50;;;;;;;;;4.67;4.67;;;;;24.45;41.95;101117.69;5043379;28;45568;-89
2022/06/20 21:06:29;;;;;;;;;7.67;6.00;;;;;23.95;42.50;101033.50;5046028;28;45621;-89
2022/06/20 21:09:02;;;;;;;;;7.00;7.00;;;;;23.52;41.98;100974.97;5051945;28;45412;-89
2022/06/20 21:11:32;;;;;;;;;7.33;7.33;;;;;24.41;42.49;101106.22;5051692;28;46392;-91
2022/06/20 21:14:13;;;;;;;;;5.67;5.67;;;;;23.73;42.10;100988.41;5050642;28;45788;-89
2022/06/20 21:16:45;;;;;;;;;6.33;6.00;;;;;23.87;42.09;101017.06;5046208;28;45954;-90
2022/06/20 21:19:26;;;;;;;;;7.00;7.00;;;;;24.42;42.49;101109.81;5053357;28;45447;-89
2022/06/20 21:22:02;;;;;;;;;7.33;7.00;;;;;23.75;42.10;101006.34;5054327;28;45465;-93
2022/06/20 21:24:43;;;;;;;;;6.33;6.33;;;;;23.11;42.42;100890.03;5048147;28;45422;-87
2022/06/20 21:27:26;;;;;;;;;8.00;8.00;;;;;24.31;43.38;101115.44;5046241;28;46001;-86
2022/06/20 21:30:08;;;;;;;;;7.67;7.67;;;;;23.52;42.63;100961.38;5049029;28;45698;-88
2022/06/20 21:32:35;;;;;;;;;6.00;6.00;;;;;23.49;43.36;100976.13;5046808;28;46519;-88
2022/06/20 21:43:19;;;;;;;;;5.67;5.00;;;;;23.46;42.44;101019.97;5052675;28;45496;-91
2022/06/20 21:48:19;;;;;;;;;9.00;9.00;;;;;23.88;44.09;101092.28;5067925;28;45629;-88
2022/06/20 21:50:57;;;;;;;;;6.67;6.67;;;;;22.91;43.45;100927.19;5064723;28;45448;-88
2022/06/20 21:53:51;;;;;;;;;7.00;7.00;;;;;23.33;44.58;101020.25;5069572;28;45666;-89
2022/06/20 21:56:30;;;;;;;;;6.67;6.67;;;;;23.24;44.71;100996.63;5068008;27;45346;-89
2022/06/20 21:59:20;;;;;;;;;10.00;9.67;;;;;24.06;43.93;101134.09;5069873;28;45455;-88
2022/06/20 22:04:37;;;;;;;;;6.33;6.33;;;;;24.02;43.38;101130.81;5068300;28;45368;-89
2022/06/20 22:07:07;;;;;;;;;6.67;6.67;;;;;23.90;43.80;101107.47;5048334;28;46004;-88
2022/06/20 22:09:38;;;;;;;;;7.33;6.00;;;;;23.57;43.36;101046.16;5068488;28;45479;-88
2022/06/20 22:12:13;;;;;;;;;7.00;6.67;;;;;22.91;42.92;100932.63;5063450;28;45567;-88
2022/06/20 22:14:52;;;;;;;;;7.33;7.33;;;;;23.12;43.77;100974.16;5069225;27;46438;-87
2022/06/20 22:17:45;;;;;;;;;9.33;7.33;;;;;23.91;43.00;101098.31;5073103;27;45482;-89
2022/06/20 22:20:33;;;;;;;;;7.33;7.33;;;;;23.88;43.73;101101.31;5064023;27;45377;-90
2022/06/20 22:23:00;;;;;;;;;9.00;6.00;;;;;23.88;43.69;101104.06;5069173;27;47769;-90
2022/06/20 22:26:12;;;;;;;;;8.00;7.67;;;;;23.05;44.09;100972.16;5081058;27;45798;-91
2022/06/20 22:28:43;;;;;;;;;7.67;7.67;;;;;23.53;43.34;101072.81;5079036;27;45481;-91
2022/06/20 22:31:25;;;;;;;;;7.67;7.00;;;;;23.52;43.06;101064.78;5070291;27;45346;-88
2022/06/20 22:34:02;;;;;;;;;7.33;7.33;;;;;23.79;43.51;101108.50;5079280;27;45601;-90
2022/06/20 22:36:34;;;;;;;;;10.67;8.67;;;;;23.47;43.30;101056.19;5074490;27;47334;-90
2022/06/20 22:39:57;;;;;;;;;7.67;7.67;;;;;23.52;43.17;101062.91;5070333;28;45426;-86
2022/06/20 22:42:05;;;;;;;;;6.00;6.00;;;;;22.78;43.08;100943.78;5062442;28;45456;-86
2022/06/20 22:44:34;;;;;;;;;8.67;8.67;;;;;23.07;43.26;100992.75;5075587;27;45449;-85
2022/06/20 22:47:06;;;;;;;;;7.00;7.00;;;;;23.26;43.60;101040.84;5070571;28;46033;-84
2022/06/20 22:49:47;;;;;;;;;6.00;6.00;;;;;23.61;43.41;101112.91;5074744;27;45601;-85
2022/06/20 22:52:39;;;;;;;;;6.33;6.33;;;;;22.57;43.75;100967.47;5073652;28;45471;-85